Sunday, October 21, 2018, 5:26 PM GMT
Back to Local

CYTR, Trenton, Ont.

Location: , , Canada Lat: 44.117
Local Time: 5:26 PM GMT (17:26 GMT) Lon: -77.533
Time Zone: GMT Elev: 278 ft

Show me the last for .
Show Decoded

2018-10-21 17:00 METAR CYTR 211700Z 34010G18KT 15SM FEW038 04/M06 A3011 RMK SC2 SLP200 =
2018-10-21 16:00 METAR CYTR 211600Z 28010G17KT 15SM BKN040 05/M05 A3011 RMK SC6 SLP202 =
2018-10-21 15:00 METAR CYTR 211500Z 33008KT 15SM SCT044 04/M07 A3011 RMK SC3 SLP201 =
2018-10-21 14:00 METAR CYTR 211400Z 32014KT 15SM FEW044 03/M07 A3012 RMK SC2 SLP202 =
2018-10-21 13:00 METAR CYTR 211300Z 34009G16KT 15SM BKN042 02/M08 A3009 RMK SC5 SLP195 =
2018-10-21 12:00 METAR CYTR 211200Z 36007KT 15SM OVC038 01/M08 A3006 RMK SC8 SLP184 =
2018-10-21 11:00 METAR CYTR 211100Z 32010G15KT 15SM BKN038 02/M07 A3002 RMK SC7 SLP170 =
2018-10-21 10:00 METAR CYTR 211000Z 32007KT 15SM BKN038 02/M06 A2999 RMK SC7 SLP159 =
2018-10-21 09:00 METAR CYTR 210900Z 33009KT 15SM OVC036 02/M06 A2995 RMK SC8 SLP146 =
2018-10-21 08:00 METAR CYTR 210800Z 33009KT 15SM OVC034 03/M05 A2992 RMK SC8 SLP136 =
2018-10-21 07:00 METAR CYTR 210700Z 36010G18KT 15SM OVC034 03/M04 A2989 RMK SC8 SLP123 =
2018-10-21 06:00 METAR CYTR 210600Z 01010KT 15SM BKN040 03/M04 A2984 RMK SC5 SLP108 =
2018-10-21 05:00 METAR CYTR 210500Z 36004KT 15SM SCT043 02/M03 A2981 RMK SC4 SLP097 =
2018-10-21 04:00 METAR CYTR 210400Z 34005KT 15SM FEW060 03/M02 A2978 RMK SC1 SLP089 =
2018-10-21 03:00 METAR CYTR 210300Z 36005KT 15SM FEW120 04/M03 A2975 RMK AC1 SLP076 =
2018-10-21 02:00 METAR CYTR 210200Z 36010KT 15SM FEW050 FEW120 06/M03 A2971 RMK SC1AC2 SLP064 =
2018-10-21 01:00 METAR CYTR 210100Z 34006KT 15SM FEW120 BKN180 07/M02 A2968 RMK AC1AC5 SLP055 =
2018-10-21 00:00 METAR CYTR 210000Z 33005KT 15SM FEW040 BKN100 08/M02 A2966 RMK SC1AC6 SLP046 =
2018-10-20 23:00 METAR CYTR 202300Z 30006KT 15SM FEW040 BKN100 08/M02 A2963 RMK SC1AC6 SLP038 =
2018-10-20 22:00 METAR CYTR 202200Z 29005KT 15SM FEW030 BKN100 OVC200 10/M02 A2960 RMK SC1AC7CI1
                 SLP027 =
2018-10-20 21:00 METAR CYTR 202100Z 31006KT 15SM FEW040 BKN080 10/M01 A2959 RMK SC1AC7 SLP024 =
2018-10-20 20:00 METAR CYTR 202000Z 30010KT 15SM FEW040 BKN077 BKN200 12/M01 A2958 RMK CF1AC6CI1
                 CUFRA TR SLP021 =
2018-10-20 19:00 METAR CYTR 201900Z 29016G21KT 15SM FEW040 FEW100 SCT200 12/M02 A2957 RMK
                 SC1AC1CI3 SLP016 =
2018-10-20 18:00 METAR CYTR 201800Z 28019G25KT 15SM FEW040 FEW100 FEW200 13/M01 A2959 RMK
                 SC1AC1CI1 SLP023 =

Support USWX by starting your Amazon purchase here.